Time;durP1;ratioP1;P1;durP2;ratioP2;P2;SDS_P1;SDS_P2;PMS_P1;PMS_P2;Temp;Humidity;BMP_temperature;BMP_pressure;BME280_temperature;BME280_humidity;BME280_pressure;Samples;Min_cycle;Max_cycle;Signal;HPM_P1;HPM_P2
2022/06/05 00:02:51;;;;;;;9.88;7.40;;;11.80;99.90;;;;;;5053337;28;20049;-69
2022/06/05 00:05:29;;;;;;;8.98;7.43;;;11.80;99.90;;;;;;5054485;28;20053;-69
2022/06/05 00:08:16;;;;;;;13.60;7.88;;;11.80;99.90;;;;;;5053875;28;20390;-69
2022/06/05 00:10:53;;;;;;;9.25;7.35;;;12.00;99.90;;;;;;5052419;28;20037;-69
2022/06/05 00:13:37;;;;;;;9.55;6.65;;;11.70;99.90;;;;;;5057710;28;20041;-69
2022/06/05 00:16:03;;;;;;;11.10;6.93;;;11.70;99.90;;;;;;5060662;28;20136;-69
2022/06/05 00:18:33;;;;;;;9.07;7.57;;;11.70;99.90;;;;;;5051706;28;20049;-68
2022/06/05 00:20:59;;;;;;;11.00;7.97;;;11.70;99.90;;;;;;5055678;28;20718;-69
2022/06/05 00:23:24;;;;;;;13.98;7.85;;;11.60;99.90;;;;;;5049963;28;20084;-70
2022/06/05 00:25:59;;;;;;;15.40;7.55;;;11.60;99.90;;;;;;5055211;28;20428;-69
2022/06/05 00:28:51;;;;;;;11.88;8.55;;;11.70;99.90;;;;;;5054561;28;20076;-69
2022/06/05 00:31:26;;;;;;;9.02;8.00;;;11.70;99.90;;;;;;5051511;28;20508;-70
2022/06/05 00:33:52;;;;;;;9.60;8.18;;;11.70;99.90;;;;;;5053530;28;20051;-68
2022/06/05 00:36:23;;;;;;;10.45;7.43;;;11.60;99.90;;;;;;5049694;28;20048;-69
2022/06/05 00:39:07;;;;;;;8.95;7.25;;;11.60;99.90;;;;;;5054511;28;20052;-70
2022/06/05 00:41:45;;;;;;;15.48;8.93;;;11.60;99.90;;;;;;5048883;28;20044;-69
2022/06/05 00:44:17;;;;;;;15.23;8.23;;;11.60;99.90;;;;;;5050692;28;20056;-71
2022/06/05 00:46:44;;;;;;;10.05;7.18;;;11.60;99.90;;;;;;5048729;28;20057;-69
2022/06/05 00:49:10;;;;;;;7.70;6.93;;;11.70;99.90;;;;;;5051167;28;20056;-69
2022/06/05 00:51:37;;;;;;;10.70;7.53;;;11.50;99.90;;;;;;5051759;28;20041;-70
2022/06/05 00:54:03;;;;;;;9.05;7.70;;;11.50;99.90;;;;;;5050982;28;20049;-70
2022/06/05 00:56:29;;;;;;;10.57;7.07;;;11.40;99.90;;;;;;5053340;28;20049;-70
2022/06/05 00:58:54;;;;;;;12.93;7.88;;;11.40;99.90;;;;;;5054955;28;20059;-69
2022/06/05 01:01:21;;;;;;;9.38;7.13;;;11.40;99.90;;;;;;5053170;28;20052;-69
2022/06/05 01:03:47;;;;;;;10.00;7.35;;;11.40;99.90;;;;;;5055111;28;20036;-70
2022/06/05 01:06:13;;;;;;;7.97;6.88;;;12.20;99.90;;;;;;5052906;28;20647;-69
2022/06/05 01:08:40;;;;;;;10.18;7.40;;;11.40;99.90;;;;;;5049985;28;20123;-70
2022/06/05 01:11:31;;;;;;;13.13;7.85;;;11.40;99.90;;;;;;5050747;28;20057;-69
2022/06/05 01:14:40;;;;;;;13.20;7.18;;;11.40;99.90;;;;;;5035866;28;20057;-70
2022/06/05 01:17:17;;;;;;;9.30;7.30;;;11.30;99.90;;;;;;5054040;28;20437;-70
2022/06/05 01:20:09;;;;;;;16.52;8.68;;;11.30;99.90;;;;;;5057429;28;20503;-69
2022/06/05 01:22:46;;;;;;;14.43;9.18;;;11.30;99.90;;;;;;5051554;28;20044;-71
2022/06/05 01:25:51;;;;;;;13.77;7.95;;;11.30;99.90;;;;;;5051538;28;20066;-69
2022/06/05 01:28:23;;;;;;;10.30;7.80;;;11.30;99.90;;;;;;5054644;28;20603;-71
2022/06/05 01:31:07;;;;;;;9.10;8.18;;;11.30;99.90;;;;;;5053675;28;20052;-69
2022/06/05 01:33:37;;;;;;;10.82;7.95;;;11.30;99.90;;;;;;5050437;28;20056;-70
2022/06/05 01:36:09;;;;;;;16.63;8.95;;;11.30;99.90;;;;;;5051832;28;20044;-69
2022/06/05 01:38:56;;;;;;;11.75;9.07;;;11.30;99.90;;;;;;5051253;28;20045;-70
2022/06/05 01:41:34;;;;;;;12.38;8.27;;;11.30;99.90;;;;;;5051811;28;20049;-70
2022/06/05 01:44:05;;;;;;;13.90;8.98;;;11.30;99.90;;;;;;5050084;28;20095;-70
2022/06/05 01:46:35;;;;;;;15.13;8.75;;;11.30;99.90;;;;;;5054133;28;20052;-71
2022/06/05 01:49:32;;;;;;;12.60;8.35;;;11.40;99.90;;;;;;5051554;28;20057;-72
2022/06/05 01:52:18;;;;;;;11.48;8.38;;;11.30;99.90;;;;;;5053962;28;20084;-70
2022/06/05 01:54:58;;;;;;;9.32;8.43;;;11.40;99.90;;;;;;5050256;28;20130;-69
2022/06/05 01:57:26;;;;;;;11.35;8.25;;;11.40;99.90;;;;;;5058108;28;20264;-69
2022/06/05 02:00:01;;;;;;;14.30;9.57;;;11.30;99.90;;;;;;5035799;28;20141;-69
2022/06/05 02:02:37;;;;;;;14.55;8.80;;;11.30;99.90;;;;;;5052453;28;20054;-69
2022/06/05 02:05:10;;;;;;;11.95;7.72;;;11.40;99.90;;;;;;5049341;28;20056;-70
2022/06/05 02:07:41;;;;;;;9.75;8.10;;;11.50;99.90;;;;;;5049525;28;20386;-70
2022/06/05 02:10:29;;;;;;;14.30;8.23;;;11.30;99.90;;;;;;5052505;28;20235;-70
2022/06/05 02:12:56;;;;;;;12.90;8.30;;;11.40;99.90;;;;;;5054983;28;20053;-69
2022/06/05 02:15:22;;;;;;;14.35;8.50;;;11.40;99.90;;;;;;5057338;28;20041;-70
2022/06/05 02:17:50;;;;;;;15.32;8.65;;;11.50;99.90;;;;;;5057095;28;20148;-70
2022/06/05 02:20:16;;;;;;;10.45;8.52;;;11.40;99.90;;;;;;5054005;28;20533;-69
2022/06/05 02:22:49;;;;;;;13.07;8.50;;;11.50;99.90;;;;;;5054188;28;20041;-69
2022/06/05 02:25:20;;;;;;;14.00;8.90;;;11.50;99.90;;;;;;5057268;28;20049;-70
2022/06/05 02:27:46;;;;;;;11.75;8.65;;;11.40;99.90;;;;;;5052759;28;20046;-69
2022/06/05 02:30:15;;;;;;;12.80;9.25;;;11.40;99.90;;;;;;5052496;28;20512;-70
2022/06/05 02:33:00;;;;;;;12.30;8.18;;;11.50;99.90;;;;;;5057245;28;20049;-70
2022/06/05 02:35:35;;;;;;;10.40;7.30;;;11.40;99.90;;;;;;5055057;28;20055;-70
2022/06/05 02:38:04;;;;;;;9.27;7.68;;;11.40;99.90;;;;;;5056082;28;20408;-69
2022/06/05 02:40:45;;;;;;;12.68;7.72;;;11.40;99.90;;;;;;5056499;28;20102;-70
2022/06/05 02:43:29;;;;;;;9.77;7.68;;;11.50;99.90;;;;;;5057149;28;20060;-70
2022/06/05 02:46:20;;;;;;;13.80;7.88;;;11.50;99.90;;;;;;5055150;28;20424;-70
2022/06/05 02:49:08;;;;;;;12.77;7.95;;;11.50;99.90;;;;;;5051819;28;20044;-70
2022/06/05 02:51:39;;;;;;;11.63;7.63;;;11.50;99.90;;;;;;5051919;28;20412;-69
2022/06/05 02:54:04;;;;;;;9.35;7.93;;;11.50;99.90;;;;;;5051957;28;20652;-70
2022/06/05 02:56:31;;;;;;;13.85;8.27;;;11.50;99.90;;;;;;5055731;28;20041;-72
2022/06/05 02:59:00;;;;;;;10.18;7.88;;;11.50;99.90;;;;;;5058167;28;20051;-69
2022/06/05 03:04:11;;;;;;;11.02;8.23;;;11.50;99.90;;;;;;5056562;28;20135;-70
2022/06/05 03:06:39;;;;;;;10.32;7.85;;;11.50;99.90;;;;;;5055583;28;20127;-69
2022/06/05 03:09:06;;;;;;;9.98;7.60;;;11.50;99.90;;;;;;5052753;28;20047;-69
2022/06/05 03:11:31;;;;;;;11.50;7.65;;;11.60;99.90;;;;;;5045956;28;20515;-69
2022/06/05 03:13:57;;;;;;;12.90;9.35;;;11.60;99.90;;;;;;5055261;28;20041;-69
2022/06/05 03:16:24;;;;;;;10.15;7.25;;;11.60;99.90;;;;;;5054246;28;20044;-70
2022/06/05 03:18:50;;;;;;;15.25;8.98;;;11.90;99.90;;;;;;5056650;28;20136;-70
2022/06/05 03:21:15;;;;;;;18.05;8.90;;;12.10;99.90;;;;;;5061833;28;20132;-69
2022/06/05 03:23:41;;;;;;;13.18;8.57;;;11.60;99.90;;;;;;5053768;28;20051;-69
2022/06/05 03:26:10;;;;;;;12.63;9.30;;;11.60;99.90;;;;;;5056973;28;20044;-69
2022/06/05 03:28:36;;;;;;;12.32;8.60;;;11.60;99.90;;;;;;5051443;28;20087;-70
2022/06/05 03:31:09;;;;;;;15.95;9.20;;;11.60;99.90;;;;;;5053721;28;20617;-71
2022/06/05 03:33:36;;;;;;;15.57;9.10;;;10.80;99.90;;;;;;5051698;28;20049;-72
2022/06/05 03:36:08;;;;;;;14.50;9.10;;;11.60;99.90;;;;;;5066077;28;20048;-69
2022/06/05 03:38:34;;;;;;;15.98;9.63;;;11.70;99.90;;;;;;5052919;28;20051;-70
2022/06/05 03:40:59;;;;;;;12.38;9.68;;;11.70;99.90;;;;;;5055612;28;20119;-71
2022/06/05 03:43:25;;;;;;;17.15;10.20;;;13.20;99.90;;;;;;5057696;28;20040;-69
2022/06/05 03:46:02;;;;;;;15.93;9.63;;;11.80;99.90;;;;;;5057370;28;20055;-69
2022/06/05 03:48:28;;;;;;;15.40;9.40;;;11.80;99.90;;;;;;5051320;28;20033;-70
2022/06/05 03:50:54;;;;;;;13.40;9.77;;;11.80;99.90;;;;;;5056546;28;20862;-70
2022/06/05 03:53:20;;;;;;;17.58;9.93;;;11.80;99.90;;;;;;5053336;28;20144;-69
2022/06/05 03:55:45;;;;;;;17.65;10.55;;;11.80;99.90;;;;;;5056920;28;20045;-71
2022/06/05 03:58:11;;;;;;;18.15;10.45;;;11.90;99.90;;;;;;5057934;28;20070;-69
2022/06/05 04:00:37;;;;;;;14.55;10.98;;;11.80;99.90;;;;;;5059656;28;20335;-69
2022/06/05 04:03:03;;;;;;;13.35;10.35;;;11.90;99.90;;;;;;5059377;28;20033;-70
2022/06/05 04:05:28;;;;;;;18.38;10.77;;;11.90;99.90;;;;;;5059224;28;20045;-69
2022/06/05 04:07:55;;;;;;;18.83;10.82;;;11.90;99.90;;;;;;5052082;28;20053;-69
2022/06/05 04:10:21;;;;;;;19.60;11.00;;;11.90;99.90;;;;;;5051268;28;20043;-69
2022/06/05 04:12:47;;;;;;;18.65;10.80;;;11.90;99.90;;;;;;5051190;28;20045;-69
2022/06/05 04:15:13;;;;;;;25.35;12.20;;;12.00;99.90;;;;;;5053886;28;20037;-70
2022/06/05 04:17:39;;;;;;;21.92;10.98;;;12.00;99.90;;;;;;5055406;28;20045;-70
2022/06/05 04:20:06;;;;;;;17.88;11.57;;;12.10;99.90;;;;;;5050148;28;20063;-70
2022/06/05 04:22:37;;;;;;;16.52;11.48;;;12.10;99.90;;;;;;5054511;28;20128;-69
2022/06/05 04:25:05;;;;;;;14.35;10.23;;;12.10;99.90;;;;;;5051134;28;20136;-69
2022/06/05 04:27:30;;;;;;;15.82;9.80;;;12.10;99.90;;;;;;5051236;28;20541;-72
2022/06/05 04:29:58;;;;;;;19.63;11.70;;;12.10;99.90;;;;;;5053759;28;20044;-69
2022/06/05 04:32:24;;;;;;;16.55;10.07;;;12.50;99.90;;;;;;5053261;28;20048;-69
2022/06/05 04:34:50;;;;;;;19.17;11.30;;;12.30;99.90;;;;;;5051544;28;20517;-70
2022/06/05 04:37:16;;;;;;;14.52;11.23;;;12.30;99.90;;;;;;5050655;28;20124;-69
2022/06/05 04:39:42;;;;;;;19.30;10.52;;;12.30;99.90;;;;;;5050893;28;20045;-69
2022/06/05 04:42:07;;;;;;;16.70;9.52;;;12.40;99.90;;;;;;5054003;28;20064;-69
2022/06/05 04:44:33;;;;;;;14.48;10.50;;;12.40;99.90;;;;;;5050569;28;20037;-69
2022/06/05 04:46:58;;;;;;;16.35;11.02;;;12.50;99.90;;;;;;5052955;28;20052;-71
2022/06/05 04:49:24;;;;;;;13.55;10.70;;;12.50;99.90;;;;;;5055105;28;20044;-70
2022/06/05 04:51:50;;;;;;;17.15;11.45;;;12.60;99.90;;;;;;5054217;28;20052;-69
2022/06/05 04:54:16;;;;;;;14.32;10.27;;;12.90;99.90;;;;;;5051566;28;20040;-71
2022/06/05 04:56:42;;;;;;;16.38;10.75;;;12.70;99.90;;;;;;5052480;28;20072;-70
2022/06/05 04:59:09;;;;;;;16.52;11.23;;;12.70;99.90;;;;;;5053994;28;20084;-69
2022/06/05 05:01:37;;;;;;;13.82;10.35;;;12.80;99.90;;;;;;5054271;28;20127;-69
2022/06/05 05:04:09;;;;;;;14.15;9.93;;;12.80;99.90;;;;;;5047507;28;20090;-69
2022/06/05 05:06:36;;;;;;;13.80;9.77;;;12.80;99.90;;;;;;5053817;28;20044;-70
2022/06/05 05:09:02;;;;;;;16.95;10.85;;;12.90;99.90;;;;;;5050021;28;20052;-69
2022/06/05 05:11:28;;;;;;;14.70;9.68;;;12.90;99.90;;;;;;5049945;28;20454;-70
2022/06/05 05:13:55;;;;;;;13.82;10.20;;;12.90;99.90;;;;;;5049286;28;20490;-70
2022/06/05 05:16:22;;;;;;;14.73;10.93;;;12.90;99.90;;;;;;5051406;28;20049;-68
2022/06/05 05:18:48;;;;;;;19.75;10.88;;;12.90;99.90;;;;;;5051613;28;20057;-69
2022/06/05 05:21:16;;;;;;;15.73;10.32;;;12.90;99.90;;;;;;5052990;28;20036;-69
2022/06/05 05:23:44;;;;;;;14.35;10.10;;;13.00;99.90;;;;;;5050884;28;20119;-69
2022/06/05 05:26:15;;;;;;;13.07;10.30;;;13.00;99.90;;;;;;5052655;28;20083;-69
2022/06/05 05:28:42;;;;;;;14.77;9.90;;;13.00;99.90;;;;;;5051241;28;20494;-69
2022/06/05 05:31:10;;;;;;;15.75;10.20;;;13.10;99.90;;;;;;5049078;28;20386;-68
2022/06/05 05:33:36;;;;;;;13.32;9.98;;;13.20;99.90;;;;;;5050983;28;20148;-69
2022/06/05 05:36:02;;;;;;;14.60;9.63;;;13.30;99.90;;;;;;5050217;28;20128;-69
2022/06/05 05:38:28;;;;;;;15.00;10.68;;;13.40;99.90;;;;;;5050925;28;20041;-69
2022/06/05 05:43:38;;;;;;;15.75;10.70;;;13.60;99.90;;;;;;5047911;28;20056;-69
2022/06/05 05:46:11;;;;;;;17.88;10.68;;;13.70;99.90;;;;;;5047772;28;20052;-69
2022/06/05 05:48:38;;;;;;;12.65;9.32;;;13.80;99.90;;;;;;5050692;28;20200;-69
2022/06/05 05:51:09;;;;;;;12.90;10.20;;;13.90;99.90;;;;;;5044830;28;20072;-69
2022/06/05 05:53:35;;;;;;;14.27;10.90;;;14.00;99.90;;;;;;5047844;28;20046;-69
2022/06/05 05:56:12;;;;;;;13.88;9.73;;;14.10;99.90;;;;;;5051786;28;20069;-71
2022/06/05 05:58:38;;;;;;;13.63;10.45;;;14.10;99.90;;;;;;5046843;28;20526;-69
2022/06/05 06:01:06;;;;;;;10.70;8.68;;;14.10;99.90;;;;;;5049531;28;20057;-69
2022/06/05 06:03:33;;;;;;;11.30;9.73;;;14.20;99.90;;;;;;5050839;28;20049;-69
2022/06/05 06:06:00;;;;;;;16.67;9.70;;;14.30;99.90;;;;;;5048324;28;20382;-68
2022/06/05 06:08:26;;;;;;;11.18;8.88;;;14.30;99.90;;;;;;5047832;28;20048;-69
2022/06/05 06:10:52;;;;;;;14.30;9.57;;;14.30;99.90;;;;;;5047258;28;20056;-69
2022/06/05 06:13:18;;;;;;;14.13;9.65;;;14.30;99.90;;;;;;5047657;28;20059;-69
2022/06/05 06:15:43;;;;;;;11.70;9.75;;;14.60;99.90;;;;;;5049546;28;20080;-69
2022/06/05 06:18:09;;;;;;;12.30;9.95;;;14.40;99.90;;;;;;5048965;28;20041;-70
2022/06/05 06:20:35;;;;;;;12.63;9.38;;;14.40;99.90;;;;;;5050337;28;20045;-69
2022/06/05 06:23:00;;;;;;;11.77;9.65;;;14.50;99.90;;;;;;5050876;28;20037;-70
2022/06/05 06:25:26;;;;;;;10.93;9.13;;;14.40;99.90;;;;;;5050322;28;20068;-70
2022/06/05 06:27:52;;;;;;;12.60;9.27;;;14.50;99.90;;;;;;5048050;28;20507;-69
2022/06/05 06:30:17;;;;;;;11.95;9.20;;;14.50;99.90;;;;;;5048745;28;20110;-70
2022/06/05 06:32:43;;;;;;;11.02;9.23;;;14.60;99.90;;;;;;5051973;28;20048;-69
2022/06/05 06:35:09;;;;;;;11.52;9.25;;;14.70;99.90;;;;;;5050581;28;20515;-70
2022/06/05 06:37:35;;;;;;;11.32;9.30;;;14.70;99.90;;;;;;5050319;28;20050;-69
2022/06/05 06:40:01;;;;;;;12.30;9.52;;;14.80;99.90;;;;;;5049993;28;20617;-71
2022/06/05 06:42:26;;;;;;;13.70;9.70;;;14.80;99.90;;;;;;5048719;28;20029;-69
2022/06/05 06:44:52;;;;;;;17.67;9.32;;;14.90;99.90;;;;;;5052601;28;20071;-69
2022/06/05 06:47:18;;;;;;;12.52;9.60;;;14.90;99.90;;;;;;5049481;28;20041;-71
2022/06/05 06:49:43;;;;;;;13.82;9.73;;;15.20;99.90;;;;;;5047111;28;20051;-69
2022/06/05 06:52:09;;;;;;;11.85;9.25;;;15.00;99.90;;;;;;5046626;28;20049;-70
2022/06/05 06:54:35;;;;;;;14.38;9.27;;;15.10;99.90;;;;;;5045664;28;21801;-69
2022/06/05 06:57:00;;;;;;;9.55;8.52;;;15.20;99.90;;;;;;5048735;28;20037;-70
2022/06/05 06:59:28;;;;;;;9.73;8.75;;;15.20;99.90;;;;;;5051220;28;20087;-68
2022/06/05 07:01:54;;;;;;;10.20;8.95;;;15.20;99.90;;;;;;5052053;28;20516;-68
2022/06/05 07:04:21;;;;;;;14.48;9.63;;;15.40;99.90;;;;;;5055166;28;20087;-69
2022/06/05 07:06:47;;;;;;;10.38;9.27;;;15.20;99.90;;;;;;5051126;28;20084;-70
2022/06/05 07:09:14;;;;;;;10.27;9.27;;;15.40;99.90;;;;;;5047788;28;20053;-68
2022/06/05 07:11:41;;;;;;;13.45;9.32;;;15.50;99.90;;;;;;5048953;28;20048;-68
2022/06/05 07:14:07;;;;;;;11.90;9.32;;;15.50;99.90;;;;;;5047635;28;20045;-69
2022/06/05 07:16:32;;;;;;;10.50;9.20;;;15.60;99.90;;;;;;5049649;28;20107;-68
2022/06/05 07:18:59;;;;;;;14.15;9.20;;;15.70;99.90;;;;;;5061244;28;20060;-68
2022/06/05 07:21:26;;;;;;;10.60;9.30;;;15.80;99.90;;;;;;5053839;28;20152;-69
2022/06/05 07:23:51;;;;;;;10.43;9.32;;;15.80;99.90;;;;;;5046795;28;20098;-68
2022/06/05 07:26:20;;;;;;;11.02;9.30;;;16.00;99.90;;;;;;5052648;28;20041;-71
2022/06/05 07:28:46;;;;;;;11.00;8.90;;;16.00;99.90;;;;;;5050888;28;20052;-68
2022/06/05 07:31:14;;;;;;;8.57;7.78;;;16.10;99.90;;;;;;5052909;28;20037;-69
2022/06/05 07:33:43;;;;;;;11.85;8.75;;;16.10;99.90;;;;;;5047787;28;20044;-69
2022/06/05 07:36:12;;;;;;;11.27;8.50;;;16.30;99.90;;;;;;5049518;28;20131;-68
2022/06/05 07:38:39;;;;;;;10.55;8.20;;;16.30;99.90;;;;;;5047500;28;20068;-69
2022/06/05 07:41:07;;;;;;;9.85;8.48;;;16.50;99.90;;;;;;5047436;28;20532;-68
2022/06/05 07:43:33;;;;;;;10.18;8.55;;;16.70;99.90;;;;;;5047872;28;20053;-65
2022/06/05 07:46:04;;;;;;;11.10;8.40;;;16.80;99.90;;;;;;5046009;28;20049;-67
2022/06/05 07:48:29;;;;;;;8.55;7.75;;;17.10;99.90;;;;;;5047240;28;20102;-70
2022/06/05 07:56:33;;;;;;;7.50;6.80;;;17.20;99.90;;;;;;5047917;28;20041;-69
2022/06/05 07:58:59;;;;;;;10.45;7.57;;;17.30;99.90;;;;;;5047169;28;20045;-69
2022/06/05 08:01:24;;;;;;;7.88;7.05;;;17.30;99.90;;;;;;5054786;28;20037;-69
2022/06/05 08:03:50;;;;;;;9.30;7.20;;;17.40;99.90;;;;;;5067496;28;20497;-69
2022/06/05 08:06:15;;;;;;;9.88;8.02;;;17.50;99.90;;;;;;5056179;28;20053;-70
2022/06/05 08:08:41;;;;;;;8.90;7.60;;;17.50;99.90;;;;;;5046358;28;20460;-70
2022/06/05 08:11:07;;;;;;;7.97;7.25;;;17.60;99.90;;;;;;5047828;28;20311;-70
2022/06/05 08:13:32;;;;;;;8.50;7.28;;;17.60;99.90;;;;;;5045285;28;20052;-70
2022/06/05 08:15:58;;;;;;;8.15;6.75;;;17.60;99.90;;;;;;5045997;28;20075;-71
2022/06/05 08:18:24;;;;;;;9.38;7.63;;;17.60;99.90;;;;;;5047556;28;20140;-70
2022/06/05 08:20:50;;;;;;;8.43;7.55;;;17.60;99.90;;;;;;5045364;28;20312;-70
2022/06/05 08:23:16;;;;;;;7.50;6.78;;;17.70;99.90;;;;;;5045840;28;20075;-70
2022/06/05 08:25:42;;;;;;;8.65;7.53;;;17.70;99.90;;;;;;5061715;28;20067;-71
2022/06/05 08:28:08;;;;;;;9.20;6.57;;;17.80;99.90;;;;;;5066222;28;20491;-70
2022/06/05 08:30:35;;;;;;;9.63;6.93;;;17.90;99.90;;;;;;5064243;28;20045;-69
2022/06/05 08:33:00;;;;;;;8.90;6.95;;;17.90;99.90;;;;;;5050465;28;20506;-70
2022/06/05 08:35:26;;;;;;;8.38;6.82;;;18.00;99.90;;;;;;5050684;28;20056;-73
2022/06/05 08:43:57;;;;;;;7.82;6.95;;;18.20;99.90;;;;;;5051105;28;20049;-69
2022/06/05 08:46:32;;;;;;;7.63;6.32;;;18.20;99.90;;;;;;5047626;28;20462;-70
2022/06/05 08:49:23;;;;;;;7.97;7.18;;;18.40;99.90;;;;;;5044817;28;20037;-74
2022/06/05 08:52:03;;;;;;;8.25;7.50;;;18.30;99.90;;;;;;5039108;28;20064;-73
2022/06/05 08:54:50;;;;;;;7.63;6.60;;;18.40;99.90;;;;;;5044334;28;20512;-73
2022/06/05 08:57:46;;;;;;;7.50;6.85;;;18.50;99.90;;;;;;5032518;28;20085;-74
2022/06/05 09:00:20;;;;;;;8.02;7.22;;;18.50;99.90;;;;;;5045038;28;20053;-74
2022/06/05 09:03:02;;;;;;;8.60;6.65;;;18.50;99.90;;;;;;5048704;28;20075;-74
2022/06/05 09:05:31;;;;;;;;;;;18.60;99.90;;;;;;5056892;28;20053;-73
2022/06/05 09:08:04;;;;;;;9.02;7.20;;;18.60;99.90;;;;;;5047629;28;20451;-73
2022/06/05 09:10:44;;;;;;;7.43;6.72;;;18.80;99.90;;;;;;5054230;28;20044;-74
2022/06/05 09:13:29;;;;;;;6.97;6.35;;;18.80;99.90;;;;;;5047924;28;20060;-73
2022/06/05 09:16:05;;;;;;;7.45;6.68;;;19.00;99.90;;;;;;5048591;28;20084;-74
2022/06/05 09:18:38;;;;;;;7.75;6.75;;;19.10;99.90;;;;;;5044395;28;20460;-74
2022/06/05 09:21:15;;;;;;;8.15;7.45;;;19.10;99.90;;;;;;5059273;28;20123;-73
2022/06/05 09:23:40;;;;;;;7.30;6.60;;;19.20;99.90;;;;;;5052544;28;20102;-73
2022/06/05 09:26:25;;;;;;;6.65;6.05;;;19.30;99.90;;;;;;5044598;28;20447;-74
2022/06/05 09:29:02;;;;;;;7.32;6.63;;;19.30;99.90;;;;;;5028195;28;20235;-74
2022/06/05 09:31:45;;;;;;;6.68;6.07;;;19.40;99.90;;;;;;5044080;28;20102;-71
2022/06/05 09:34:24;;;;;;;8.32;6.32;;;19.40;99.90;;;;;;5042789;28;20138;-70
2022/06/05 09:37:04;;;;;;;6.80;6.10;;;19.50;99.90;;;;;;5046448;28;20314;-71
2022/06/05 09:39:38;;;;;;;8.20;6.07;;;19.50;99.90;;;;;;5043566;28;20111;-71
2022/06/05 09:42:26;;;;;;;6.90;6.25;;;19.40;99.90;;;;;;5048397;28;20048;-71
2022/06/05 09:45:24;;;;;;;8.60;6.75;;;19.60;99.90;;;;;;5049753;28;20049;-71
2022/06/05 09:48:14;;;;;;;6.28;5.68;;;19.60;99.90;;;;;;5059828;28;20088;-71
2022/06/05 09:50:41;;;;;;;7.97;6.35;;;19.70;99.90;;;;;;5051348;28;20138;-70
2022/06/05 09:53:16;;;;;;;6.13;5.53;;;19.80;99.90;;;;;;5050784;28;20049;-71
2022/06/05 09:55:59;;;;;;;5.93;5.43;;;19.80;99.90;;;;;;5045196;28;20059;-71
2022/06/05 09:59:00;;;;;;;7.13;5.80;;;20.00;99.90;;;;;;5045041;28;20052;-71
2022/06/05 10:01:33;;;;;;;6.50;5.68;;;20.10;99.90;;;;;;5058604;28;20049;-71
2022/06/05 10:03:59;;;;;;;8.90;5.95;;;20.20;99.90;;;;;;5044541;28;20112;-71
2022/06/05 10:06:55;;;;;;;7.97;6.63;;;20.30;99.90;;;;;;5050193;28;20114;-72
2022/06/05 10:09:27;;;;;;;6.80;6.13;;;20.30;99.90;;;;;;5048034;28;20052;-72
2022/06/05 10:11:57;;;;;;;9.82;5.93;;;20.30;99.90;;;;;;5052621;28;20126;-73
2022/06/05 10:14:50;;;;;;;5.97;5.47;;;20.40;99.90;;;;;;5045521;28;20052;-73
2022/06/05 10:17:31;;;;;;;6.40;5.45;;;20.40;99.90;;;;;;5045355;28;20065;-72
2022/06/05 10:20:20;;;;;;;5.68;5.22;;;20.50;99.90;;;;;;5044004;28;20064;-71
2022/06/05 10:23:14;;;;;;;6.30;5.55;;;20.50;99.90;;;;;;5044990;28;20052;-71
2022/06/05 10:26:03;;;;;;;6.03;5.43;;;20.60;99.90;;;;;;5049880;28;20095;-70
2022/06/05 10:28:31;;;;;;;7.40;5.43;;;20.70;99.90;;;;;;5014048;28;20460;-70
2022/06/05 10:31:22;;;;;;;8.13;5.60;;;20.80;99.90;;;;;;5048285;28;20110;-71
2022/06/05 10:34:11;;;;;;;5.07;4.68;;;20.80;99.90;;;;;;5054364;28;20473;-70
2022/06/05 10:36:53;;;;;;;5.22;4.80;;;20.80;99.90;;;;;;5046533;28;20045;-71
2022/06/05 10:39:28;;;;;;;5.75;4.90;;;20.90;99.90;;;;;;5053168;28;20752;-71
2022/06/05 10:41:53;;;;;;;5.32;4.60;;;21.00;99.90;;;;;;5046945;28;20596;-73
2022/06/05 10:44:25;;;;;;;6.00;5.35;;;21.10;99.90;;;;;;5048982;28;20045;-71
2022/06/05 10:47:09;;;;;;;5.03;4.53;;;21.10;99.90;;;;;;5051797;28;20131;-71
2022/06/05 10:50:10;;;;;;;7.38;4.95;;;21.00;99.90;;;;;;5055104;28;20049;-71
2022/06/05 10:53:04;;;;;;;5.85;4.45;;;22.10;99.90;;;;;;5053001;28;20049;-71
2022/06/05 10:55:49;;;;;;;9.75;5.10;;;21.10;99.90;;;;;;5052135;28;20041;-71
2022/06/05 10:58:39;;;;;;;5.88;5.30;;;21.00;99.90;;;;;;5047747;28;20049;-71
2022/06/05 11:01:34;;;;;;;5.57;5.05;;;21.20;99.90;;;;;;5047040;28;20071;-71
2022/06/05 11:04:06;;;;;;;7.28;4.32;;;21.20;99.90;;;;;;5047588;28;20052;-71
2022/06/05 11:07:09;;;;;;;6.05;4.70;;;21.20;99.90;;;;;;5048726;28;20463;-71
2022/06/05 11:09:38;;;;;;;4.40;4.00;;;21.30;99.90;;;;;;5053240;28;20055;-70
2022/06/05 11:15:12;;;;;;;4.82;4.40;;;21.40;99.90;;;;;;5044960;28;20056;-71
2022/06/05 11:17:59;;;;;;;5.38;4.30;;;21.40;99.90;;;;;;5053307;28;20214;-71
2022/06/05 11:20:26;;;;;;;5.38;4.97;;;21.40;99.90;;;;;;5050247;28;20064;-71
2022/06/05 11:23:17;;;;;;;5.93;4.75;;;21.40;99.90;;;;;;5068659;28;20040;-71
2022/06/05 11:26:10;;;;;;;5.00;4.57;;;21.40;99.90;;;;;;5059378;28;20099;-71
2022/06/05 11:29:01;;;;;;;9.00;4.43;;;21.40;99.90;;;;;;5057917;28;20060;-71
2022/06/05 11:31:42;;;;;;;5.25;4.63;;;21.40;99.90;;;;;;5066509;28;20124;-70
2022/06/05 11:34:20;;;;;;;4.75;4.35;;;21.40;99.90;;;;;;5066849;28;20416;-67
2022/06/05 11:36:55;;;;;;;5.15;4.72;;;21.40;99.90;;;;;;5048676;28;20551;-68
2022/06/05 11:39:32;;;;;;;4.38;3.97;;;21.40;99.90;;;;;;5046749;28;20041;-68
2022/06/05 11:42:16;;;;;;;4.95;4.18;;;21.40;99.90;;;;;;5048094;28;20397;-68
2022/06/05 11:44:53;;;;;;;4.65;4.30;;;21.50;99.90;;;;;;5047260;28;20053;-68
2022/06/05 11:47:29;;;;;;;5.50;4.25;;;21.50;99.90;;;;;;5046745;28;20049;-68
2022/06/05 11:50:16;;;;;;;7.40;4.78;;;21.60;99.90;;;;;;5047735;28;20056;-68
2022/06/05 11:53:16;;;;;;;5.60;5.00;;;21.60;99.90;;;;;;5047987;28;20094;-68
2022/06/05 11:55:58;;;;;;;5.82;3.97;;;21.60;99.90;;;;;;5056603;28;20056;-68
2022/06/05 11:58:41;;;;;;;5.00;4.50;;;21.70;99.90;;;;;;5059730;28;20049;-69
2022/06/05 12:01:20;;;;;;;5.10;4.60;;;21.70;99.90;;;;;;5063509;28;20052;-68
2022/06/05 12:04:05;;;;;;;4.97;4.32;;;21.70;99.90;;;;;;5067796;28;20109;-69
2022/06/05 12:06:57;;;;;;;6.50;4.68;;;21.70;99.90;;;;;;5056895;28;20057;-68
2022/06/05 12:09:28;;;;;;;6.60;4.82;;;21.70;99.90;;;;;;5029797;28;20049;-68
2022/06/05 12:12:05;;;;;;;5.65;4.40;;;21.80;99.90;;;;;;5060546;28;20040;-68
2022/06/05 12:14:41;;;;;;;4.63;4.22;;;21.80;99.90;;;;;;5046305;28;20061;-69
2022/06/05 12:17:07;;;;;;;5.20;4.70;;;21.80;99.90;;;;;;5045724;28;20607;-68
2022/06/05 12:19:35;;;;;;;6.32;4.47;;;21.90;99.90;;;;;;5028658;28;20520;-68
2022/06/05 12:22:14;;;;;;;6.25;4.05;;;21.90;99.90;;;;;;5053013;28;20049;-68
2022/06/05 12:25:19;;;;;;;6.10;4.15;;;22.00;99.90;;;;;;5045958;28;20059;-68
2022/06/05 12:28:07;;;;;;;5.10;3.97;;;22.00;99.90;;;;;;5004843;28;20175;-68
2022/06/05 12:30:38;;;;;;;5.18;3.67;;;22.10;99.90;;;;;;5048794;28;20044;-68
2022/06/05 12:33:31;;;;;;;4.80;3.80;;;22.10;99.90;;;;;;5052350;28;20504;-68
2022/06/05 12:36:26;;;;;;;5.15;4.40;;;22.20;99.90;;;;;;5049424;28;20067;-68
2022/06/05 12:39:05;;;;;;;4.70;4.30;;;22.30;99.90;;;;;;5037801;28;20095;-68
2022/06/05 12:41:43;;;;;;;4.97;4.53;;;22.30;99.90;;;;;;5051702;28;20546;-69
2022/06/05 12:44:29;;;;;;;4.57;4.18;;;22.30;99.90;;;;;;5045836;28;20478;-68
2022/06/05 12:47:16;;;;;;;5.00;4.13;;;22.40;99.90;;;;;;5045010;28;20051;-68
2022/06/05 12:50:02;;;;;;;3.72;3.42;;;22.40;99.90;;;;;;5052317;28;20482;-68
2022/06/05 12:52:46;;;;;;;4.40;3.90;;;22.40;99.90;;;;;;5060816;28;20053;-67
2022/06/05 12:55:40;;;;;;;5.65;4.00;;;22.40;99.90;;;;;;5044882;28;20401;-68
2022/06/05 12:58:26;;;;;;;4.32;3.90;;;22.40;99.90;;;;;;5044342;28;20060;-68
2022/06/05 13:01:06;;;;;;;5.13;4.05;;;22.40;99.90;;;;;;5050006;28;20049;-68
2022/06/05 13:03:54;;;;;;;4.45;4.05;;;22.40;99.90;;;;;;5050029;28;20080;-68
2022/06/05 13:06:32;;;;;;;5.20;4.07;;;22.40;99.90;;;;;;5049598;28;20626;-68
2022/06/05 13:09:06;;;;;;;5.45;4.47;;;22.50;99.90;;;;;;5051114;28;20128;-68
2022/06/05 13:11:40;;;;;;;6.40;3.88;;;22.40;99.90;;;;;;5053758;28;20048;-68
2022/06/05 13:14:45;;;;;;;6.80;3.95;;;22.40;99.90;;;;;;5051738;28;20080;-68
2022/06/05 13:17:17;;;;;;;4.85;4.15;;;22.40;99.90;;;;;;5056334;28;20060;-69
2022/06/05 13:20:00;;;;;;;4.30;3.90;;;22.30;99.90;;;;;;5049887;28;20059;-68
2022/06/05 13:22:35;;;;;;;4.30;3.90;;;22.30;99.90;;;;;;5045390;28;20060;-68
2022/06/05 13:25:14;;;;;;;6.53;4.20;;;23.20;99.90;;;;;;5044613;28;20061;-69
2022/06/05 13:28:07;;;;;;;7.15;3.38;;;22.20;99.90;;;;;;5045321;28;20454;-67
2022/06/05 13:30:52;;;;;;;7.78;4.13;;;22.20;99.90;;;;;;5045387;28;20127;-68
2022/06/05 13:33:32;;;;;;;4.53;4.13;;;22.20;99.90;;;;;;5046060;28;20091;-69
2022/06/05 13:36:15;;;;;;;4.13;3.70;;;22.20;99.90;;;;;;5045305;28;20053;-68